sensor_id;sensor_type;location;lat;lon;timestamp;pressure;altitude;pressure_sealevel;temperature;humidity
21824;BME280;11074;48.596;9.238;2023-07-31T00:01:09;98308.03;;;18.93;73.83
21824;BME280;11074;48.596;9.238;2023-07-31T00:03:35;98304.44;;;18.97;74.65
21824;BME280;11074;48.596;9.238;2023-07-31T00:06:00;98304.22;;;18.94;72.68
21824;BME280;11074;48.596;9.238;2023-07-31T00:08:26;98305.13;;;18.89;73.28
21824;BME280;11074;48.596;9.238;2023-07-31T00:10:52;98301.81;;;18.79;73.04
21824;BME280;11074;48.596;9.238;2023-07-31T00:13:18;98301.63;;;18.75;73.04
21824;BME280;11074;48.596;9.238;2023-07-31T00:15:44;98299.28;;;18.82;73.76
21824;BME280;11074;48.596;9.238;2023-07-31T00:18:10;98293.81;;;18.60;73.52
21824;BME280;11074;48.596;9.238;2023-07-31T00:20:35;98298.63;;;18.49;73.06
21824;BME280;11074;48.596;9.238;2023-07-31T00:23:01;98303.22;;;18.49;73.65
21824;BME280;11074;48.596;9.238;2023-07-31T00:25:26;98310.78;;;18.33;73.75
21824;BME280;11074;48.596;9.238;2023-07-31T00:27:52;98305.69;;;18.45;73.73
21824;BME280;11074;48.596;9.238;2023-07-31T00:30:17;98311.69;;;18.42;73.57
21824;BME280;11074;48.596;9.238;2023-07-31T00:32:43;98311.63;;;18.61;75.57
21824;BME280;11074;48.596;9.238;2023-07-31T00:35:09;98312.66;;;18.65;75.06
21824;BME280;11074;48.596;9.238;2023-07-31T00:37:34;98300.63;;;18.57;73.53
21824;BME280;11074;48.596;9.238;2023-07-31T00:40:00;98310.19;;;18.36;74.31
21824;BME280;11074;48.596;9.238;2023-07-31T00:42:26;98306.84;;;18.26;73.85
21824;BME280;11074;48.596;9.238;2023-07-31T00:44:51;98319.50;;;18.30;73.68
21824;BME280;11074;48.596;9.238;2023-07-31T00:47:17;98315.91;;;18.35;73.87
21824;BME280;11074;48.596;9.238;2023-07-31T00:49:43;98314.97;;;18.26;73.82
21824;BME280;11074;48.596;9.238;2023-07-31T00:52:10;98305.34;;;18.20;74.53
21824;BME280;11074;48.596;9.238;2023-07-31T00:54:36;98305.03;;;18.21;74.43
21824;BME280;11074;48.596;9.238;2023-07-31T00:57:02;98294.72;;;18.23;74.14
21824;BME280;11074;48.596;9.238;2023-07-31T00:59:28;98287.63;;;18.27;74.03
21824;BME280;11074;48.596;9.238;2023-07-31T01:01:54;98286.91;;;18.22;74.20
21824;BME280;11074;48.596;9.238;2023-07-31T01:04:21;98299.13;;;18.19;75.42
21824;BME280;11074;48.596;9.238;2023-07-31T01:07:14;98305.84;;;18.22;74.67
21824;BME280;11074;48.596;9.238;2023-07-31T01:10:18;98289.91;;;18.34;76.71
21824;BME280;11074;48.596;9.238;2023-07-31T01:12:46;98287.91;;;18.39;76.83
21824;BME280;11074;48.596;9.238;2023-07-31T01:15:13;98284.69;;;18.24;74.79
21824;BME280;11074;48.596;9.238;2023-07-31T01:17:43;98283.16;;;18.04;74.82
21824;BME280;11074;48.596;9.238;2023-07-31T01:20:19;98283.25;;;17.99;74.72
21824;BME280;11074;48.596;9.238;2023-07-31T01:26:12;98278.69;;;18.27;76.83
21824;BME280;11074;48.596;9.238;2023-07-31T01:29:00;98273.78;;;18.29;75.39
21824;BME280;11074;48.596;9.238;2023-07-31T01:31:29;98271.59;;;18.31;75.93
21824;BME280;11074;48.596;9.238;2023-07-31T01:34:00;98265.84;;;18.18;73.93
21824;BME280;11074;48.596;9.238;2023-07-31T01:36:28;98262.06;;;18.20;74.31
21824;BME280;11074;48.596;9.238;2023-07-31T01:38:59;98254.22;;;18.18;75.30
21824;BME280;11074;48.596;9.238;2023-07-31T01:41:26;98257.00;;;18.13;74.66
21824;BME280;11074;48.596;9.238;2023-07-31T01:43:51;98250.97;;;18.02;75.01
21824;BME280;11074;48.596;9.238;2023-07-31T01:46:17;98251.31;;;18.14;76.45
21824;BME280;11074;48.596;9.238;2023-07-31T01:48:43;98248.03;;;18.17;76.27
21824;BME280;11074;48.596;9.238;2023-07-31T01:51:08;98253.13;;;18.19;77.32
21824;BME280;11074;48.596;9.238;2023-07-31T01:53:34;98253.81;;;18.11;76.62
21824;BME280;11074;48.596;9.238;2023-07-31T01:56:00;98253.38;;;17.90;75.68
21824;BME280;11074;48.596;9.238;2023-07-31T01:58:25;98245.06;;;18.00;76.03
21824;BME280;11074;48.596;9.238;2023-07-31T02:00:51;98244.84;;;17.97;75.70
21824;BME280;11074;48.596;9.238;2023-07-31T02:03:16;98246.16;;;17.99;75.70
21824;BME280;11074;48.596;9.238;2023-07-31T02:05:49;98245.75;;;17.92;75.99
21824;BME280;11074;48.596;9.238;2023-07-31T02:08:16;98244.94;;;17.92;76.69
21824;BME280;11074;48.596;9.238;2023-07-31T02:10:42;98245.63;;;17.84;76.10
21824;BME280;11074;48.596;9.238;2023-07-31T02:13:08;98245.81;;;17.74;76.47
21824;BME280;11074;48.596;9.238;2023-07-31T02:15:35;98242.53;;;17.77;76.15
21824;BME280;11074;48.596;9.238;2023-07-31T02:18:01;98238.72;;;17.91;76.79
21824;BME280;11074;48.596;9.238;2023-07-31T02:20:26;98231.34;;;17.97;77.00
21824;BME280;11074;48.596;9.238;2023-07-31T02:22:52;98221.50;;;17.87;75.67
21824;BME280;11074;48.596;9.238;2023-07-31T02:25:17;98218.41;;;17.80;75.41
21824;BME280;11074;48.596;9.238;2023-07-31T02:27:43;98222.88;;;17.71;75.55
21824;BME280;11074;48.596;9.238;2023-07-31T02:30:09;98220.94;;;17.58;76.44
21824;BME280;11074;48.596;9.238;2023-07-31T02:32:35;98214.06;;;17.47;76.21
21824;BME280;11074;48.596;9.238;2023-07-31T02:35:01;98222.75;;;17.44;76.50
21824;BME280;11074;48.596;9.238;2023-07-31T02:37:27;98221.38;;;17.28;77.10
21824;BME280;11074;48.596;9.238;2023-07-31T02:39:54;98213.94;;;17.20;77.50
21824;BME280;11074;48.596;9.238;2023-07-31T02:42:20;98219.19;;;17.11;77.64
21824;BME280;11074;48.596;9.238;2023-07-31T02:44:46;98215.31;;;17.17;77.53
21824;BME280;11074;48.596;9.238;2023-07-31T02:47:11;98220.06;;;17.25;77.51
21824;BME280;11074;48.596;9.238;2023-07-31T02:49:37;98218.09;;;17.12;77.67
21824;BME280;11074;48.596;9.238;2023-07-31T02:52:03;98221.47;;;17.23;77.23
21824;BME280;11074;48.596;9.238;2023-07-31T02:54:28;98220.06;;;17.25;77.28
21824;BME280;11074;48.596;9.238;2023-07-31T02:56:54;98226.28;;;17.26;77.16
21824;BME280;11074;48.596;9.238;2023-07-31T02:59:20;98220.72;;;17.36;77.61
21824;BME280;11074;48.596;9.238;2023-07-31T03:01:46;98212.69;;;17.31;76.78
21824;BME280;11074;48.596;9.238;2023-07-31T03:04:11;98211.16;;;17.25;77.60
21824;BME280;11074;48.596;9.238;2023-07-31T03:06:37;98213.06;;;17.24;77.91
21824;BME280;11074;48.596;9.238;2023-07-31T03:09:03;98212.09;;;17.34;77.54
21824;BME280;11074;48.596;9.238;2023-07-31T03:11:28;98201.22;;;17.20;77.28
21824;BME280;11074;48.596;9.238;2023-07-31T03:13:54;98202.69;;;17.13;77.40
21824;BME280;11074;48.596;9.238;2023-07-31T03:16:20;98200.16;;;17.03;78.28
21824;BME280;11074;48.596;9.238;2023-07-31T03:18:45;98205.47;;;17.08;77.79
21824;BME280;11074;48.596;9.238;2023-07-31T03:21:12;98209.72;;;17.14;78.42
21824;BME280;11074;48.596;9.238;2023-07-31T03:23:37;98197.22;;;17.18;78.55
21824;BME280;11074;48.596;9.238;2023-07-31T03:26:07;98202.84;;;17.21;78.08
21824;BME280;11074;48.596;9.238;2023-07-31T03:28:33;98208.97;;;17.27;78.36
21824;BME280;11074;48.596;9.238;2023-07-31T03:30:59;98202.47;;;17.28;78.29
21824;BME280;11074;48.596;9.238;2023-07-31T03:33:25;98200.59;;;17.10;77.36
21824;BME280;11074;48.596;9.238;2023-07-31T03:35:51;98209.41;;;17.15;77.58
21824;BME280;11074;48.596;9.238;2023-07-31T03:38:18;98204.44;;;17.22;77.63
21824;BME280;11074;48.596;9.238;2023-07-31T03:40:43;98200.94;;;17.22;77.57
21824;BME280;11074;48.596;9.238;2023-07-31T03:43:09;98205.81;;;17.20;76.87
21824;BME280;11074;48.596;9.238;2023-07-31T03:45:35;98203.13;;;17.20;77.42
21824;BME280;11074;48.596;9.238;2023-07-31T03:48:01;98209.06;;;17.22;77.59
21824;BME280;11074;48.596;9.238;2023-07-31T03:50:26;98209.34;;;17.20;77.86
21824;BME280;11074;48.596;9.238;2023-07-31T03:52:52;98208.03;;;17.18;77.35
21824;BME280;11074;48.596;9.238;2023-07-31T03:55:18;98205.41;;;17.13;77.65
21824;BME280;11074;48.596;9.238;2023-07-31T03:57:44;98216.22;;;17.13;77.94
21824;BME280;11074;48.596;9.238;2023-07-31T04:00:10;98209.41;;;17.15;78.29
21824;BME280;11074;48.596;9.238;2023-07-31T04:02:36;98213.44;;;17.18;78.30
21824;BME280;11074;48.596;9.238;2023-07-31T04:05:01;98202.84;;;17.21;78.72
21824;BME280;11074;48.596;9.238;2023-07-31T04:07:27;98210.38;;;17.24;78.33
21824;BME280;11074;48.596;9.238;2023-07-31T04:09:53;98209.06;;;17.22;78.59
21824;BME280;11074;48.596;9.238;2023-07-31T04:12:18;98212.78;;;17.07;77.98
21824;BME280;11074;48.596;9.238;2023-07-31T04:14:44;98215.31;;;17.17;78.82
21824;BME280;11074;48.596;9.238;2023-07-31T04:17:10;98204.00;;;17.15;78.93
21824;BME280;11074;48.596;9.238;2023-07-31T04:19:35;98216.34;;;17.21;78.98
21824;BME280;11074;48.596;9.238;2023-07-31T04:22:01;98209.09;;;17.17;78.84
21824;BME280;11074;48.596;9.238;2023-07-31T04:24:26;98206.34;;;17.22;78.96
21824;BME280;11074;48.596;9.238;2023-07-31T04:26:53;98203.03;;;17.25;79.13
21824;BME280;11074;48.596;9.238;2023-07-31T04:29:19;98204.66;;;17.26;78.73
21824;BME280;11074;48.596;9.238;2023-07-31T04:31:45;98194.34;;;17.28;79.47
21824;BME280;11074;48.596;9.238;2023-07-31T04:34:11;98200.25;;;17.30;78.97
21824;BME280;11074;48.596;9.238;2023-07-31T04:36:39;98199.75;;;17.28;78.62
21824;BME280;11074;48.596;9.238;2023-07-31T04:39:05;98192.16;;;17.30;78.75
21824;BME280;11074;48.596;9.238;2023-07-31T04:41:31;98183.84;;;17.26;78.86
21824;BME280;11074;48.596;9.238;2023-07-31T04:43:56;98189.19;;;17.13;78.71
21824;BME280;11074;48.596;9.238;2023-07-31T04:46:22;98195.81;;;17.20;78.97
21824;BME280;11074;48.596;9.238;2023-07-31T04:48:48;98187.44;;;17.22;78.99
21824;BME280;11074;48.596;9.238;2023-07-31T04:51:13;98195.25;;;17.23;79.20
21824;BME280;11074;48.596;9.238;2023-07-31T04:53:39;98198.16;;;17.27;79.38
21824;BME280;11074;48.596;9.238;2023-07-31T04:56:04;98197.63;;;17.25;79.27
21824;BME280;11074;48.596;9.238;2023-07-31T04:58:30;98197.38;;;17.26;79.53
21824;BME280;11074;48.596;9.238;2023-07-31T05:00:56;98197.22;;;17.18;78.94
21824;BME280;11074;48.596;9.238;2023-07-31T05:03:21;98186.91;;;17.20;79.12
21824;BME280;11074;48.596;9.238;2023-07-31T05:05:47;98184.66;;;17.27;79.38
21824;BME280;11074;48.596;9.238;2023-07-31T05:08:13;98177.63;;;17.26;79.07
21824;BME280;11074;48.596;9.238;2023-07-31T05:10:39;98191.88;;;17.31;79.20
21824;BME280;11074;48.596;9.238;2023-07-31T05:13:04;98190.47;;;17.34;79.98
21824;BME280;11074;48.596;9.238;2023-07-31T05:15:30;98193.69;;;17.36;79.73
21824;BME280;11074;48.596;9.238;2023-07-31T05:17:59;98185.56;;;17.36;79.45
21824;BME280;11074;48.596;9.238;2023-07-31T05:20:25;98191.78;;;17.36;79.28
21824;BME280;11074;48.596;9.238;2023-07-31T05:22:51;98194.13;;;17.43;79.26
21824;BME280;11074;48.596;9.238;2023-07-31T05:25:20;98200.69;;;17.37;79.60
21824;BME280;11074;48.596;9.238;2023-07-31T05:27:45;98192.28;;;17.38;79.33
21824;BME280;11074;48.596;9.238;2023-07-31T05:30:11;98189.91;;;17.37;79.83
21824;BME280;11074;48.596;9.238;2023-07-31T05:32:39;98188.50;;;17.39;80.20
21824;BME280;11074;48.596;9.238;2023-07-31T05:35:08;98194.63;;;17.45;80.02
21824;BME280;11074;48.596;9.238;2023-07-31T05:37:34;98195.94;;;17.47;79.51
21824;BME280;11074;48.596;9.238;2023-07-31T05:40:00;98194.53;;;17.50;79.64
21824;BME280;11074;48.596;9.238;2023-07-31T05:42:25;98193.16;;;17.52;79.45
21824;BME280;11074;48.596;9.238;2023-07-31T05:44:51;98188.25;;;17.54;79.65
21824;BME280;11074;48.596;9.238;2023-07-31T05:47:17;98191.19;;;17.58;79.80
21824;BME280;11074;48.596;9.238;2023-07-31T05:49:43;98189.06;;;17.55;79.89
21824;BME280;11074;48.596;9.238;2023-07-31T05:52:09;98191.47;;;17.56;79.76
21824;BME280;11074;48.596;9.238;2023-07-31T05:54:35;98190.88;;;17.60;79.95
21824;BME280;11074;48.596;9.238;2023-07-31T05:57:00;98192.19;;;17.62;79.70
21824;BME280;11074;48.596;9.238;2023-07-31T05:59:26;98188.91;;;17.65;79.70
21824;BME280;11074;48.596;9.238;2023-07-31T06:01:52;98193.13;;;17.71;79.47
21824;BME280;11074;48.596;9.238;2023-07-31T06:04:18;98182.22;;;17.76;79.54
21824;BME280;11074;48.596;9.238;2023-07-31T06:06:44;98191.03;;;17.82;79.20
21824;BME280;11074;48.596;9.238;2023-07-31T06:09:09;98182.13;;;17.81;79.44
21824;BME280;11074;48.596;9.238;2023-07-31T06:11:35;98182.63;;;17.83;79.54
21824;BME280;11074;48.596;9.238;2023-07-31T06:14:01;98184.22;;;17.84;79.57
21824;BME280;11074;48.596;9.238;2023-07-31T06:16:26;98181.75;;;17.88;79.72
21824;BME280;11074;48.596;9.238;2023-07-31T06:18:52;98178.94;;;17.93;79.53
21824;BME280;11074;48.596;9.238;2023-07-31T06:21:18;98178.03;;;17.97;79.68
21824;BME280;11074;48.596;9.238;2023-07-31T06:23:44;98174.25;;;17.98;79.23
21824;BME280;11074;48.596;9.238;2023-07-31T06:26:09;98173.13;;;17.99;79.42
21824;BME280;11074;48.596;9.238;2023-07-31T06:28:35;98183.84;;;18.04;79.03
21824;BME280;11074;48.596;9.238;2023-07-31T06:31:01;98173.81;;;18.05;78.97
21824;BME280;11074;48.596;9.238;2023-07-31T06:33:27;98170.84;;;18.06;79.78
21824;BME280;11074;48.596;9.238;2023-07-31T06:35:53;98176.25;;;18.06;79.88
21824;BME280;11074;48.596;9.238;2023-07-31T06:38:26;98183.25;;;18.07;79.65
21824;BME280;11074;48.596;9.238;2023-07-31T06:40:53;98181.84;;;18.10;79.98
21824;BME280;11074;48.596;9.238;2023-07-31T06:43:19;98181.25;;;18.13;79.80
21824;BME280;11074;48.596;9.238;2023-07-31T06:45:44;98187.97;;;18.15;79.55
21824;BME280;11074;48.596;9.238;2023-07-31T06:48:11;98176.66;;;18.13;79.08
21824;BME280;11074;48.596;9.238;2023-07-31T06:50:36;98167.94;;;18.16;79.72
21824;BME280;11074;48.596;9.238;2023-07-31T06:53:02;98178.66;;;18.22;79.35
21824;BME280;11074;48.596;9.238;2023-07-31T06:55:28;98175.84;;;18.27;78.66
21824;BME280;11074;48.596;9.238;2023-07-31T06:57:55;98173.63;;;18.29;78.64
21824;BME280;11074;48.596;9.238;2023-07-31T07:00:22;98178.66;;;18.35;77.86
21824;BME280;11074;48.596;9.238;2023-07-31T07:02:49;98172.03;;;18.41;77.54
21824;BME280;11074;48.596;9.238;2023-07-31T07:05:16;98166.72;;;18.50;77.67
21824;BME280;11074;48.596;9.238;2023-07-31T07:07:44;98172.06;;;18.55;76.89
21824;BME280;11074;48.596;9.238;2023-07-31T07:10:10;98178.13;;;18.60;76.80
21824;BME280;11074;48.596;9.238;2023-07-31T07:12:36;98172.00;;;18.68;76.32
21824;BME280;11074;48.596;9.238;2023-07-31T07:15:02;98182.94;;;18.77;75.97
21824;BME280;11074;48.596;9.238;2023-07-31T07:17:30;98175.50;;;18.83;76.11
21824;BME280;11074;48.596;9.238;2023-07-31T07:19:57;98172.38;;;18.89;75.32
21824;BME280;11074;48.596;9.238;2023-07-31T07:22:23;98170.03;;;18.96;74.32
21824;BME280;11074;48.596;9.238;2023-07-31T07:24:49;98176.16;;;19.02;73.65
21824;BME280;11074;48.596;9.238;2023-07-31T07:27:15;98172.50;;;19.06;73.62
21824;BME280;11074;48.596;9.238;2023-07-31T07:29:41;98158.03;;;19.11;72.56
21824;BME280;11074;48.596;9.238;2023-07-31T07:32:07;98154.91;;;19.17;72.71
21824;BME280;11074;48.596;9.238;2023-07-31T07:34:32;98167.53;;;19.22;71.79
21824;BME280;11074;48.596;9.238;2023-07-31T07:36:58;98164.00;;;19.21;70.99
21824;BME280;11074;48.596;9.238;2023-07-31T07:39:24;98154.97;;;19.26;71.21
21824;BME280;11074;48.596;9.238;2023-07-31T07:41:50;98154.16;;;19.25;70.14
21824;BME280;11074;48.596;9.238;2023-07-31T07:44:16;98147.75;;;19.21;69.75
21824;BME280;11074;48.596;9.238;2023-07-31T07:46:43;98152.06;;;19.22;70.02
21824;BME280;11074;48.596;9.238;2023-07-31T07:49:08;98152.25;;;19.26;69.53
21824;BME280;11074;48.596;9.238;2023-07-31T07:51:34;98149.84;;;19.24;69.31
21824;BME280;11074;48.596;9.238;2023-07-31T07:54:00;98141.09;;;19.27;70.12
21824;BME280;11074;48.596;9.238;2023-07-31T07:56:27;98145.09;;;19.30;69.04
21824;BME280;11074;48.596;9.238;2023-07-31T07:58:53;98144.19;;;19.34;69.35
21824;BME280;11074;48.596;9.238;2023-07-31T08:01:19;98140.78;;;19.43;69.23
21824;BME280;11074;48.596;9.238;2023-07-31T08:03:47;98141.94;;;19.50;68.88
21824;BME280;11074;48.596;9.238;2023-07-31T08:06:13;98146.91;;;19.57;68.86
21824;BME280;11074;48.596;9.238;2023-07-31T08:08:39;98144.50;;;19.55;68.07
21824;BME280;11074;48.596;9.238;2023-07-31T08:11:05;98141.94;;;19.59;67.13
21824;BME280;11074;48.596;9.238;2023-07-31T08:13:31;98131.63;;;19.61;67.41
21824;BME280;11074;48.596;9.238;2023-07-31T08:15:57;98135.63;;;19.63;67.13
21824;BME280;11074;48.596;9.238;2023-07-31T08:18:23;98135.66;;;19.72;67.71
21824;BME280;11074;48.596;9.238;2023-07-31T08:20:48;98133.59;;;19.77;66.76
21824;BME280;11074;48.596;9.238;2023-07-31T08:23:14;98131.72;;;19.86;67.52
21824;BME280;11074;48.596;9.238;2023-07-31T08:25:40;98123.25;;;19.88;67.40
21824;BME280;11074;48.596;9.238;2023-07-31T08:28:06;98121.06;;;19.90;65.92
21824;BME280;11074;48.596;9.238;2023-07-31T08:30:32;98113.41;;;19.92;66.77
21824;BME280;11074;48.596;9.238;2023-07-31T08:33:02;98117.06;;;19.96;66.03
21824;BME280;11074;48.596;9.238;2023-07-31T08:35:28;98105.28;;;20.01;65.92
21824;BME280;11074;48.596;9.238;2023-07-31T08:37:54;98112.47;;;20.05;66.30
21824;BME280;11074;48.596;9.238;2023-07-31T08:40:20;98110.91;;;20.13;66.06
21824;BME280;11074;48.596;9.238;2023-07-31T08:42:49;98109.47;;;20.15;64.61
21824;BME280;11074;48.596;9.238;2023-07-31T08:45:18;98102.78;;;20.21;64.25
21824;BME280;11074;48.596;9.238;2023-07-31T08:47:50;98107.16;;;20.31;64.46
21824;BME280;11074;48.596;9.238;2023-07-31T08:50:19;98114.84;;;20.37;63.63
21824;BME280;11074;48.596;9.238;2023-07-31T08:52:51;98102.06;;;20.38;61.47
21824;BME280;11074;48.596;9.238;2023-07-31T08:55:20;98101.09;;;20.42;61.91
21824;BME280;11074;48.596;9.238;2023-07-31T08:57:52;98094.25;;;20.53;63.01
21824;BME280;11074;48.596;9.238;2023-07-31T09:00:21;98099.53;;;20.59;61.99
21824;BME280;11074;48.596;9.238;2023-07-31T09:05:26;98090.91;;;20.74;61.81
21824;BME280;11074;48.596;9.238;2023-07-31T09:07:55;98097.44;;;20.81;60.37
21824;BME280;11074;48.596;9.238;2023-07-31T09:10:21;98096.97;;;20.88;60.81
21824;BME280;11074;48.596;9.238;2023-07-31T09:12:50;98090.28;;;20.85;60.39
21824;BME280;11074;48.596;9.238;2023-07-31T09:15:17;98086.09;;;20.79;59.50
21824;BME280;11074;48.596;9.238;2023-07-31T09:17:42;98089.47;;;20.76;60.55
21824;BME280;11074;48.596;9.238;2023-07-31T09:20:20;98083.38;;;20.79;59.91
21824;BME280;11074;48.596;9.238;2023-07-31T09:22:48;98080.38;;;20.81;60.43
21824;BME280;11074;48.596;9.238;2023-07-31T09:25:22;98075.25;;;20.88;59.67
21824;BME280;11074;48.596;9.238;2023-07-31T09:28:04;98084.66;;;20.90;60.43
21824;BME280;11074;48.596;9.238;2023-07-31T09:30:36;98076.19;;;20.92;60.48
21824;BME280;11074;48.596;9.238;2023-07-31T09:33:09;98069.34;;;20.94;59.49
21824;BME280;11074;48.596;9.238;2023-07-31T09:35:35;98069.28;;;21.03;59.89
21824;BME280;11074;48.596;9.238;2023-07-31T09:38:11;98081.97;;;21.07;60.42
21824;BME280;11074;48.596;9.238;2023-07-31T09:40:40;98068.38;;;21.07;59.70
21824;BME280;11074;48.596;9.238;2023-07-31T09:43:09;98086.75;;;21.10;60.57
21824;BME280;11074;48.596;9.238;2023-07-31T09:45:40;98069.78;;;21.05;59.25
21824;BME280;11074;48.596;9.238;2023-07-31T09:48:16;98071.25;;;21.11;60.23
21824;BME280;11074;48.596;9.238;2023-07-31T09:50:47;98050.44;;;21.15;60.65
21824;BME280;11074;48.596;9.238;2023-07-31T09:53:15;98046.91;;;21.23;60.62
21824;BME280;11074;48.596;9.238;2023-07-31T09:55:42;98038.13;;;21.26;60.45
21824;BME280;11074;48.596;9.238;2023-07-31T09:58:12;98039.84;;;21.31;59.99
21824;BME280;11074;48.596;9.238;2023-07-31T10:00:39;98032.50;;;21.31;59.26
21824;BME280;11074;48.596;9.238;2023-07-31T10:03:08;98030.72;;;21.35;59.12
21824;BME280;11074;48.596;9.238;2023-07-31T10:06:02;98019.66;;;21.40;59.26
21824;BME280;11074;48.596;9.238;2023-07-31T10:08:30;98017.56;;;21.46;60.29
21824;BME280;11074;48.596;9.238;2023-07-31T10:11:02;98018.81;;;21.48;59.23
21824;BME280;11074;48.596;9.238;2023-07-31T10:13:30;98019.47;;;21.45;58.20
21824;BME280;11074;48.596;9.238;2023-07-31T10:15:59;98008.41;;;21.50;58.85
21824;BME280;11074;48.596;9.238;2023-07-31T10:18:27;98006.00;;;21.57;59.22
21824;BME280;11074;48.596;9.238;2023-07-31T10:20:55;97994.31;;;21.57;59.21
21824;BME280;11074;48.596;9.238;2023-07-31T10:23:23;97983.88;;;21.59;58.61
21824;BME280;11074;48.596;9.238;2023-07-31T10:25:53;97992.00;;;21.67;59.07
21824;BME280;11074;48.596;9.238;2023-07-31T10:28:20;97988.63;;;21.70;59.54
21824;BME280;11074;48.596;9.238;2023-07-31T10:30:46;97984.00;;;21.71;59.04
21824;BME280;11074;48.596;9.238;2023-07-31T10:33:13;97982.53;;;21.73;58.96
21824;BME280;11074;48.596;9.238;2023-07-31T10:35:40;97984.41;;;21.82;59.31
21824;BME280;11074;48.596;9.238;2023-07-31T10:38:11;97975.28;;;21.86;58.50
21824;BME280;11074;48.596;9.238;2023-07-31T10:40:37;97960.03;;;21.85;58.90
21824;BME280;11074;48.596;9.238;2023-07-31T10:43:03;97966.13;;;21.91;59.04
21824;BME280;11074;48.596;9.238;2023-07-31T10:45:39;97969.34;;;21.93;57.17
21824;BME280;11074;48.596;9.238;2023-07-31T10:48:13;97965.75;;;22.01;58.22
21824;BME280;11074;48.596;9.238;2023-07-31T10:50:56;97958.00;;;22.11;57.66
21824;BME280;11074;48.596;9.238;2023-07-31T10:53:30;97962.22;;;22.21;57.42
21824;BME280;11074;48.596;9.238;2023-07-31T10:56:07;97952.72;;;22.27;57.25
21824;BME280;11074;48.596;9.238;2023-07-31T10:58:33;97951.72;;;22.31;57.55
21824;BME280;11074;48.596;9.238;2023-07-31T11:01:02;97950.06;;;22.39;57.58
21824;BME280;11074;48.596;9.238;2023-07-31T11:03:47;97952.25;;;22.46;57.54
21824;BME280;11074;48.596;9.238;2023-07-31T11:06:15;97955.44;;;22.48;56.28
21824;BME280;11074;48.596;9.238;2023-07-31T11:08:47;97941.38;;;22.58;55.65
21824;BME280;11074;48.596;9.238;2023-07-31T11:11:17;97945.19;;;22.65;55.55
21824;BME280;11074;48.596;9.238;2023-07-31T11:13:52;97952.38;;;22.70;56.31
21824;BME280;11074;48.596;9.238;2023-07-31T11:16:24;97947.03;;;22.73;55.89
21824;BME280;11074;48.596;9.238;2023-07-31T11:18:51;97951.00;;;22.76;54.80
21824;BME280;11074;48.596;9.238;2023-07-31T11:21:21;97948.19;;;22.72;54.97
21824;BME280;11074;48.596;9.238;2023-07-31T11:23:56;97934.41;;;22.69;54.53
21824;BME280;11074;48.596;9.238;2023-07-31T11:26:24;97933.41;;;22.73;54.82
21824;BME280;11074;48.596;9.238;2023-07-31T11:28:50;97940.91;;;22.76;55.22
21824;BME280;11074;48.596;9.238;2023-07-31T11:31:17;97929.56;;;22.74;54.78
21824;BME280;11074;48.596;9.238;2023-07-31T11:33:44;97935.91;;;22.78;55.20
21824;BME280;11074;48.596;9.238;2023-07-31T11:36:20;97944.09;;;22.78;54.89
21824;BME280;11074;48.596;9.238;2023-07-31T11:38:46;97946.16;;;22.81;54.95
21824;BME280;11074;48.596;9.238;2023-07-31T11:41:16;97930.59;;;22.82;54.97
21824;BME280;11074;48.596;9.238;2023-07-31T11:43:42;97935.69;;;22.83;54.86
21824;BME280;11074;48.596;9.238;2023-07-31T11:46:09;97935.25;;;22.81;55.58
21824;BME280;11074;48.596;9.238;2023-07-31T11:48:37;97940.59;;;22.78;55.99
21824;BME280;11074;48.596;9.238;2023-07-31T11:51:09;97931.13;;;22.75;54.98
21824;BME280;11074;48.596;9.238;2023-07-31T11:53:47;97930.22;;;22.71;54.25
21824;BME280;11074;48.596;9.238;2023-07-31T11:56:18;97928.41;;;22.75;55.64
21824;BME280;11074;48.596;9.238;2023-07-31T11:58:47;97921.38;;;22.74;54.05
21824;BME280;11074;48.596;9.238;2023-07-31T12:01:16;97919.44;;;22.75;54.21
21824;BME280;11074;48.596;9.238;2023-07-31T12:03:45;97916.50;;;22.80;55.56
21824;BME280;11074;48.596;9.238;2023-07-31T12:06:11;97918.88;;;22.81;55.23
21824;BME280;11074;48.596;9.238;2023-07-31T12:08:37;97904.13;;;22.82;55.59
21824;BME280;11074;48.596;9.238;2023-07-31T12:11:06;97898.31;;;22.84;55.43
21824;BME280;11074;48.596;9.238;2023-07-31T12:13:33;97902.31;;;22.86;55.88
21824;BME280;11074;48.596;9.238;2023-07-31T12:16:01;97897.78;;;22.90;55.56
21824;BME280;11074;48.596;9.238;2023-07-31T12:18:34;97891.88;;;22.88;55.70
21824;BME280;11074;48.596;9.238;2023-07-31T12:21:04;97888.34;;;22.88;56.04
21824;BME280;11074;48.596;9.238;2023-07-31T12:23:32;97885.50;;;22.84;56.14
21824;BME280;11074;48.596;9.238;2023-07-31T12:26:13;97888.56;;;22.83;56.28
21824;BME280;11074;48.596;9.238;2023-07-31T12:28:45;97885.19;;;22.86;57.00
21824;BME280;11074;48.596;9.238;2023-07-31T12:31:21;97887.91;;;22.86;57.45
21824;BME280;11074;48.596;9.238;2023-07-31T12:33:50;97875.41;;;22.85;57.15
21824;BME280;11074;48.596;9.238;2023-07-31T12:36:20;97878.78;;;22.82;56.96
21824;BME280;11074;48.596;9.238;2023-07-31T12:38:46;97884.13;;;22.78;57.49
21824;BME280;11074;48.596;9.238;2023-07-31T12:41:12;97880.03;;;22.72;60.26
21824;BME280;11074;48.596;9.238;2023-07-31T12:43:40;97874.66;;;22.64;59.90
21824;BME280;11074;48.596;9.238;2023-07-31T12:46:07;97858.16;;;22.60;60.63
21824;BME280;11074;48.596;9.238;2023-07-31T12:48:34;97856.09;;;22.57;60.38
21824;BME280;11074;48.596;9.238;2023-07-31T12:51:01;97859.97;;;22.56;62.64
21824;BME280;11074;48.596;9.238;2023-07-31T12:53:28;97861.09;;;22.55;60.95
21824;BME280;11074;48.596;9.238;2023-07-31T12:55:56;97856.09;;;22.57;59.68
21824;BME280;11074;48.596;9.238;2023-07-31T12:58:22;97844.22;;;22.62;59.56
21824;BME280;11074;48.596;9.238;2023-07-31T13:00:48;97844.59;;;22.72;58.90
21824;BME280;11074;48.596;9.238;2023-07-31T13:03:14;97838.78;;;22.74;58.91
21824;BME280;11074;48.596;9.238;2023-07-31T13:05:39;97822.22;;;22.79;58.03
21824;BME280;11074;48.596;9.238;2023-07-31T13:08:05;97815.88;;;22.87;58.50